Briefing drone pour La chapelle-saint-mesmin

Rechercher une autre localisation

Conditions de vol :


Nous sommes le : Vendredi 25 juin 2021
Il est 23:41 UTC (01:41 LT)

Lever de soleil : 03:29 UTC (05:29 LT)
Coucher de soleil : 20:21 UTC (22:21 LT)

Météo

L'essentiel des conditions de vol

VIGILANCE MÉTÉO FRANCE - Loiret (45)
Pas de vigilances particulieres
CARTE TEMSI
CARTES DES FRONTS
METAR de LFOJ
LFOJ 242330Z AUTO 34002KT CAVOK 13/10 Q1022

Date d'émission: 24/06/2021
Heure d'émission: 23:30 UTC
Vent: 340° pour 2 KT (4 km/h)
Visibilité horizontale: > 10 km
Plafond : Plafond et visibilité OK (CAVOK)
Température: 13 °C
Point de rosée: 10 °C
Humidité: 82%
Pression (QNH): 1022 hPa
TAF de LFOJ
LFOJ 242212Z 2422/2521 CNL

Conditions prévues :

Heure d'émission : Bulletin éffectué le 24 à 22:00 UTC
Prévision : Valide du 24 a 22:00 UTC au 25 a 21:00 UTC
Nuages : à 0ft (0 m)
WEBCAM POUR LA CHAPELLE-SAINT-MESMIN

Réglementation

Voler en sécurité

CARTES AERONAUTIQUE 1/500.000
CARTE AZBA (Reseau basse altitude)
CARTES VAC (LFOJ)
SUP AIP




Chargement des AIP...
NOTAM (LA CHAPELLE-SAINT-MESMIN + Terrain à proximité / FIR )




Chargement des NOTAMS...
CONTACT PREFECTURE 45


Avertissement : Les données mises à disposition sont indicatives. Oxygène Drone ne pourra être tenu responsable de dégâts causés aux biens et aux personnes.